Atlantic, NC

3:25 AM EST on January 26, 2015 (GMT -0500)
Core Sound's 2 West Shore Heel of Rock Jetty | Change Station
CLOSE
Current Station
Personal Weather Station
Location: Davis, NC
Elevation: 13 ft
Nearby Weather Stations

Elev 13 ft 34.80 °N, 76.46 °W | Updated 23 minutes ago

Partly Cloudy
Partly Cloudy
44.8 °F
Feels Like 45 °F
N
1.0
Wind Variable Wind from NW
Gusts 1.0 mph

Today
High -- | Low -- °F
--% Chance of Precip.
Yesterday
High -- | Low -- °F
Precip. -- in
7:08 AM 5:28 PM
Waxing Crescent, 41% visible
Pressure 29.79 in
Visibility 10.0 miles
Clouds Clear
Windchill 45 °F
Dew Point 44 °F
Humidity 95%
Rainfall 0.00 in
Snow Depth Not available.
UV 0 out of 12
Pollen 2.50 out of 12
Air Quality Not available.
Flu Activity Not available.
METAR KMRH 260758Z AUTO 35003KT 10SM CLR 06/06 A2979 RMK AO2 SLP088 T00610056 TSNO

More Conditions Fewer Conditions

Pressure 29.79 in
Visibility 10.0 miles
Clouds Clear
Windchill 45 °F
Dew Point 44 °F
Humidity 95%
Rainfall 0.00 in
Snow Depth Not available.
UV 0 out of 12
Pollen 2.50 out of 12
Air Quality Not available.
Flu Activity Not available.
METAR KMRH 260758Z AUTO 35003KT 10SM CLR 06/06 A2979 RMK AO2 SLP088 T00610056 TSNO

More Conditions Fewer Conditions

10-Day Weather Forecast

Almanac

Astronomy

Jan. 26, 2015 Rise Set
Actual Time
Civil Twilight
Nautical Twilight
Astronomical Twilight
Moon
Length of Visible Light
Length of Day
Tomorrow will be .
, % of the Moon is Illuminated

Today's Extremes

State Highs State Lows

Community

WunderPhotos

Upload Photos

1,790,163 photos uploaded!

WunderBlogs® & News

Nearby

Air Quality

  Air Quality AQ Index Pollutant
Not available.

Snow Depth

Station Depth Elevation

Earthquake Activity

City Distance Mag. Time & Date
Minimum magnitude displayed is 2.5.

Coastal Water Temperatures

Place Temperature

Nearby Weather Stations